createdAt,value
2018-12-07T00:01:46.896Z,77.11
2018-12-07T00:03:51.714Z,77.01
2018-12-07T00:05:56.674Z,76.39
2018-12-07T00:08:01.571Z,76.24
2018-12-07T00:10:07.155Z,76.31
2018-12-07T00:12:11.816Z,76.92
2018-12-07T00:14:17.562Z,77.08
2018-12-07T00:16:23.032Z,76.90
2018-12-07T00:18:28.833Z,76.98
2018-12-07T00:20:33.990Z,76.38
2018-12-07T00:22:38.880Z,76.01
2018-12-07T00:24:43.709Z,76.00
2018-12-07T00:26:48.528Z,75.47
2018-12-07T00:28:53.833Z,75.55
2018-12-07T00:30:59.550Z,75.57
2018-12-07T00:33:04.335Z,75.57
2018-12-07T00:35:09.169Z,75.88
2018-12-07T00:37:13.985Z,75.42
2018-12-07T00:39:19.553Z,75.70
2018-12-07T00:41:24.417Z,75.52
2018-12-07T00:43:29.338Z,75.42
2018-12-07T00:45:35.454Z,75.28
2018-12-07T00:47:40.213Z,75.59
2018-12-07T00:49:45.099Z,75.70
2018-12-07T00:51:49.986Z,75.58
2018-12-07T00:53:55.764Z,75.01
2018-12-07T00:56:00.627Z,75.67
2018-12-07T00:58:06.498Z,75.86
2018-12-07T01:00:12.428Z,76.21
2018-12-07T01:02:17.321Z,76.46
2018-12-07T01:04:22.892Z,76.43
2018-12-07T01:06:28.538Z,76.51
2018-12-07T01:08:34.181Z,76.64
2018-12-07T01:10:39.247Z,77.00
2018-12-07T01:12:44.379Z,76.86
2018-12-07T01:14:49.196Z,76.74
2018-12-07T01:16:54.550Z,76.93
2018-12-07T01:18:59.350Z,77.20
2018-12-07T01:21:04.307Z,77.08
2018-12-07T01:23:10.519Z,77.83
2018-12-07T01:25:15.756Z,78.11
2018-12-07T01:27:21.195Z,78.50
2018-12-07T01:29:26.655Z,78.38
2018-12-07T01:31:31.779Z,78.65
2018-12-07T01:33:36.875Z,78.99
2018-12-07T01:35:41.649Z,79.23
2018-12-07T01:37:46.534Z,79.34
2018-12-07T01:39:51.224Z,79.79
2018-12-07T01:41:55.952Z,79.90
2018-12-07T01:44:01.069Z,80.13
2018-12-07T01:46:05.963Z,80.28
2018-12-07T01:48:10.633Z,80.50
2018-12-07T01:50:16.618Z,80.43
2018-12-07T01:52:21.417Z,80.43
2018-12-07T01:54:26.197Z,80.44
2018-12-07T01:56:30.984Z,80.61
2018-12-07T01:58:35.911Z,80.56
2018-12-07T02:00:40.859Z,80.79
2018-12-07T02:02:45.530Z,80.65
2018-12-07T02:04:50.396Z,80.62
2018-12-07T02:06:55.465Z,81.18
2018-12-07T02:09:00.497Z,81.27
2018-12-07T02:11:05.279Z,81.75
2018-12-07T02:13:09.984Z,81.49
2018-12-07T02:15:15.778Z,82.21
2018-12-07T02:17:20.607Z,82.19
2018-12-07T02:19:25.521Z,82.14
2018-12-07T02:21:32.143Z,82.09
2018-12-07T02:23:36.888Z,82.24
2018-12-07T02:25:41.683Z,82.41
2018-12-07T02:27:51.408Z,82.84
2018-12-07T02:29:56.184Z,82.77
2018-12-07T02:32:01.112Z,82.77
2018-12-07T02:34:06.058Z,82.64
2018-12-07T02:36:10.726Z,83.08
2018-12-07T02:38:15.401Z,82.79
2018-12-07T02:40:20.308Z,83.35
2018-12-07T02:42:25.516Z,83.32
2018-12-07T02:44:30.241Z,83.05
2018-12-07T02:46:35.609Z,83.13
2018-12-07T02:48:40.385Z,83.20
2018-12-07T02:50:45.201Z,83.29
2018-12-07T02:52:49.970Z,83.44
2018-12-07T02:54:54.664Z,83.36
2018-12-07T02:56:59.723Z,83.48
2018-12-07T02:59:05.086Z,83.51
2018-12-07T03:01:09.868Z,83.59
2018-12-07T03:03:15.546Z,83.44
2018-12-07T03:05:20.424Z,83.45
2018-12-07T03:07:26.843Z,83.38
2018-12-07T03:09:31.576Z,83.42
2018-12-07T03:11:36.398Z,83.40
2018-12-07T03:13:41.382Z,83.13
2018-12-07T03:15:46.360Z,83.03
2018-12-07T03:17:51.188Z,82.87
2018-12-07T03:19:56.502Z,82.18
2018-12-07T03:22:01.289Z,82.40
2018-12-07T03:24:07.776Z,82.53
2018-12-07T03:26:14.337Z,82.68
2018-12-07T03:28:19.209Z,82.56
2018-12-07T03:30:23.878Z,82.46
2018-12-07T03:32:28.694Z,82.41
2018-12-07T03:34:33.506Z,82.44
2018-12-07T03:36:38.245Z,82.24
2018-12-07T03:38:44.407Z,82.49
2018-12-07T03:40:49.265Z,82.63
2018-12-07T03:45:11.887Z,82.56
2018-12-07T03:47:16.758Z,82.46
2018-12-07T03:49:23.497Z,82.61
2018-12-07T03:51:29.123Z,82.55
2018-12-07T03:53:34.095Z,82.16
2018-12-07T03:55:39.053Z,82.07
2018-12-07T03:57:43.888Z,81.21
2018-12-07T03:59:48.736Z,81.48
2018-12-07T04:01:53.582Z,81.54
2018-12-07T04:03:58.382Z,81.89
2018-12-07T04:06:04.760Z,81.83
2018-12-07T04:08:10.438Z,81.69
2018-12-07T04:10:15.939Z,81.85
2018-12-07T04:12:21.650Z,81.82
2018-12-07T04:14:26.486Z,81.90
2018-12-07T04:16:31.283Z,82.05
2018-12-07T04:18:36.025Z,81.89
2018-12-07T04:20:40.722Z,81.94
2018-12-07T04:22:45.784Z,81.74
2018-12-07T04:24:50.900Z,81.90
2018-12-07T04:26:55.731Z,82.06
2018-12-07T04:29:01.054Z,81.99
2018-12-07T04:31:07.090Z,82.31
2018-12-07T04:33:13.212Z,82.33
2018-12-07T04:35:18.068Z,82.59
2018-12-07T04:37:23.434Z,82.36
2018-12-07T04:39:28.259Z,82.06
2018-12-07T04:41:32.979Z,82.44
2018-12-07T04:43:37.905Z,82.53
2018-12-07T04:45:42.633Z,83.09
2018-12-07T04:47:47.669Z,83.35
2018-12-07T04:49:52.418Z,82.81
2018-12-07T04:51:57.082Z,83.20
2018-12-07T04:54:02.354Z,83.68
2018-12-07T04:56:08.525Z,83.98
2018-12-07T04:58:13.254Z,84.16
2018-12-07T05:00:18.124Z,84.20
2018-12-07T05:02:22.931Z,84.24
2018-12-07T05:04:27.810Z,84.28
2018-12-07T05:06:32.496Z,84.63
2018-12-07T05:08:37.243Z,84.88
2018-12-07T05:10:42.103Z,84.92
2018-12-07T05:12:47.437Z,85.30
2018-12-07T05:14:52.246Z,85.32
2018-12-07T05:16:57.039Z,85.56
2018-12-07T05:19:01.898Z,85.61
2018-12-07T05:21:07.516Z,85.73
2018-12-07T05:23:12.262Z,85.63
2018-12-07T05:25:17.069Z,85.57
2018-12-07T05:27:25.970Z,85.58
2018-12-07T05:29:32.922Z,86.04
2018-12-07T05:31:39.434Z,85.93
2018-12-07T05:33:44.469Z,86.06
2018-12-07T05:38:07.896Z,85.99
2018-12-07T05:40:12.649Z,85.97
2018-12-07T05:42:17.836Z,85.76
2018-12-07T05:44:23.398Z,86.21
2018-12-07T05:46:28.210Z,86.14
2018-12-07T05:48:33.017Z,86.11
2018-12-07T05:50:38.393Z,86.09
2018-12-07T05:52:43.129Z,86.09
2018-12-07T05:54:47.860Z,86.54
2018-12-07T05:59:10.295Z,86.65
2018-12-07T06:01:15.229Z,86.57
2018-12-07T06:03:19.963Z,86.45
2018-12-07T06:05:24.819Z,86.52
2018-12-07T06:07:29.621Z,86.88
2018-12-07T06:09:34.496Z,86.81
2018-12-07T06:11:39.335Z,87.24
2018-12-07T06:13:46.754Z,87.00
2018-12-07T06:15:57.482Z,87.06
2018-12-07T06:18:04.825Z,87.01
2018-12-07T06:20:10.484Z,87.22
2018-12-07T06:22:15.214Z,87.11
2018-12-07T06:24:19.979Z,87.05
2018-12-07T06:26:24.686Z,87.11
2018-12-07T06:28:29.730Z,87.32
2018-12-07T06:30:34.461Z,87.03
2018-12-07T06:32:39.352Z,87.03
2018-12-07T06:34:44.120Z,86.74
2018-12-07T06:36:49.742Z,87.04
2018-12-07T06:38:54.565Z,86.98
2018-12-07T06:40:59.311Z,86.86
2018-12-07T06:43:05.904Z,86.79
2018-12-07T06:45:13.240Z,86.61
2018-12-07T06:47:18.276Z,86.23
2018-12-07T06:49:23.238Z,86.32
2018-12-07T06:51:28.126Z,86.15
2018-12-07T06:53:33.111Z,86.13
2018-12-07T06:55:38.075Z,86.07
2018-12-07T06:57:43.049Z,86.28
2018-12-07T06:59:47.908Z,86.06
2018-12-07T07:01:52.804Z,85.55
2018-12-07T07:03:57.592Z,85.78
2018-12-07T07:06:02.347Z,85.86
2018-12-07T07:08:07.144Z,85.89
2018-12-07T07:10:12.149Z,86.04
2018-12-07T07:12:16.897Z,85.96
2018-12-07T07:14:21.698Z,85.65
2018-12-07T07:16:26.506Z,85.80
2018-12-07T07:18:31.266Z,85.82
2018-12-07T07:20:36.248Z,86.11
2018-12-07T07:22:42.671Z,85.63
2018-12-07T07:24:47.396Z,85.63
2018-12-07T07:26:52.161Z,85.90
2018-12-07T07:28:58.666Z,85.96
2018-12-07T07:31:03.444Z,86.10
2018-12-07T07:33:08.469Z,85.99
2018-12-07T07:35:14.274Z,85.79
2018-12-07T07:37:19.006Z,85.83
2018-12-07T07:39:23.809Z,86.03
2018-12-07T07:41:28.900Z,86.07
2018-12-07T07:43:33.768Z,86.19
2018-12-07T07:45:38.645Z,86.29
2018-12-07T07:47:43.353Z,86.53
2018-12-07T07:49:48.200Z,86.55
2018-12-07T07:51:53.030Z,86.34
2018-12-07T07:53:57.779Z,86.56
2018-12-07T07:56:02.495Z,86.47
2018-12-07T07:58:07.243Z,86.45
2018-12-07T08:00:12.222Z,86.30
2018-12-07T08:02:16.933Z,86.30
2018-12-07T08:04:21.822Z,86.17
2018-12-07T08:06:27.096Z,86.32
2018-12-07T08:08:32.007Z,86.67
2018-12-07T08:10:36.984Z,86.77
2018-12-07T08:12:42.008Z,86.91
2018-12-07T08:14:46.786Z,86.86
2018-12-07T08:16:51.701Z,87.17
2018-12-07T08:18:56.494Z,86.77
2018-12-07T08:21:01.837Z,87.22
2018-12-07T08:23:06.680Z,87.07
2018-12-07T08:25:12.280Z,87.37
2018-12-07T08:27:17.185Z,87.39
2018-12-07T08:29:22.138Z,87.43
2018-12-07T08:31:27.406Z,87.44
2018-12-07T08:33:35.115Z,87.39
2018-12-07T08:35:39.938Z,87.18
2018-12-07T08:37:45.223Z,86.79
2018-12-07T08:39:52.054Z,86.76
2018-12-07T08:41:57.212Z,86.66
2018-12-07T08:44:02.091Z,86.21
2018-12-07T08:46:06.865Z,85.94
2018-12-07T08:48:11.717Z,86.04
2018-12-07T08:50:16.521Z,85.89
2018-12-07T08:52:21.408Z,85.73
2018-12-07T08:54:26.514Z,85.29
2018-12-07T08:56:31.332Z,85.00
2018-12-07T08:58:36.140Z,84.95
2018-12-07T09:00:41.188Z,84.84
2018-12-07T09:02:47.173Z,84.55
2018-12-07T09:04:52.286Z,84.45
2018-12-07T09:06:57.162Z,84.40
2018-12-07T09:09:03.236Z,83.92
2018-12-07T09:11:09.608Z,83.85
2018-12-07T09:13:15.225Z,83.54
2018-12-07T09:15:21.014Z,82.26
2018-12-07T09:17:26.320Z,82.82
2018-12-07T09:19:31.411Z,82.12
2018-12-07T09:21:45.557Z,82.16
2018-12-07T09:23:50.935Z,82.20
2018-12-07T09:25:57.925Z,81.35
2018-12-07T09:28:02.704Z,81.19
2018-12-07T09:30:09.344Z,81.44
2018-12-07T09:32:14.941Z,81.41
2018-12-07T09:34:19.869Z,81.38
2018-12-07T09:36:24.757Z,81.08
2018-12-07T09:40:51.631Z,81.07
2018-12-07T09:42:56.543Z,80.86
2018-12-07T09:45:01.704Z,80.58
2018-12-07T09:47:06.594Z,80.58
2018-12-07T09:49:11.897Z,80.07
2018-12-07T09:51:17.587Z,79.91
2018-12-07T09:53:30.770Z,79.47
2018-12-07T09:55:35.693Z,79.66
2018-12-07T09:59:45.599Z,79.95
2018-12-07T10:01:51.637Z,79.56
2018-12-07T10:03:58.836Z,79.66
2018-12-07T10:06:04.113Z,79.87
2018-12-07T10:08:09.078Z,79.78
2018-12-07T10:10:14.932Z,79.70
2018-12-07T10:12:19.975Z,79.68
2018-12-07T10:14:25.624Z,77.52
2018-12-07T10:16:31.617Z,78.24
2018-12-07T10:18:38.219Z,78.35
2018-12-07T10:20:43.334Z,78.43
2018-12-07T10:22:50.451Z,78.29
2018-12-07T10:24:55.953Z,78.65
2018-12-07T10:27:08.326Z,78.04
2018-12-07T10:29:13.499Z,77.50
2018-12-07T10:31:18.412Z,77.73
2018-12-07T10:33:23.404Z,78.02
2018-12-07T10:35:29.570Z,78.22
2018-12-07T10:37:34.897Z,77.52
2018-12-07T10:39:39.947Z,77.63
2018-12-07T10:41:44.951Z,77.23
2018-12-07T10:43:50.027Z,76.77
2018-12-07T10:45:55.131Z,76.08
2018-12-07T10:48:00.029Z,76.40
2018-12-07T10:50:06.157Z,75.59
2018-12-07T10:52:11.079Z,76.25
2018-12-07T10:54:16.227Z,76.36
2018-12-07T10:56:21.366Z,76.36
2018-12-07T10:58:26.973Z,76.18
2018-12-07T11:00:37.544Z,76.33
2018-12-07T11:02:47.628Z,76.12
2018-12-07T11:04:58.316Z,75.40
2018-12-07T11:07:08.392Z,75.21
2018-12-07T11:09:18.435Z,75.27
2018-12-07T11:11:28.338Z,75.57
2018-12-07T11:16:11.596Z,74.07
2018-12-07T11:18:21.365Z,74.52
2018-12-07T11:20:31.364Z,74.46
2018-12-07T11:22:41.162Z,73.86
2018-12-07T11:24:51.193Z,73.64
2018-12-07T11:27:01.348Z,74.28
2018-12-07T11:29:14.761Z,73.92
2018-12-07T11:31:26.144Z,73.53
2018-12-07T11:34:39.990Z,74.11
2018-12-07T11:36:44.941Z,74.17
2018-12-07T11:38:50.720Z,73.74
2018-12-07T11:40:57.207Z,73.80
2018-12-07T11:43:03.822Z,73.61
2018-12-07T11:45:25.577Z,73.87
2018-12-07T11:47:37.014Z,74.06
2018-12-07T11:49:44.284Z,73.25
2018-12-07T11:54:12.224Z,72.11
2018-12-07T11:56:18.101Z,72.03
2018-12-07T11:58:23.802Z,71.21
2018-12-07T12:00:43.346Z,70.78
2018-12-07T12:02:50.773Z,70.99
2018-12-07T12:04:59.039Z,70.51
2018-12-07T12:07:05.226Z,70.37
2018-12-07T12:09:14.946Z,70.99
2018-12-07T12:11:23.203Z,70.52
2018-12-07T12:13:29.951Z,69.59
2018-12-07T12:15:36.206Z,70.08
2018-12-07T12:17:44.244Z,69.29
2018-12-07T12:19:49.358Z,68.97
2018-12-07T12:21:56.834Z,69.19
2018-12-07T12:24:06.074Z,68.89
2018-12-07T12:26:11.144Z,68.39
2018-12-07T12:28:16.136Z,68.03
2018-12-07T12:30:21.162Z,68.15
2018-12-07T12:32:26.129Z,68.33
2018-12-07T12:34:32.826Z,68.39
2018-12-07T12:36:37.672Z,67.58
2018-12-07T12:38:44.328Z,68.77
2018-12-07T12:40:51.631Z,69.19
2018-12-07T12:42:57.577Z,68.20
2018-12-07T12:45:09.396Z,67.89
2018-12-07T12:47:14.382Z,68.67
2018-12-07T12:49:31.245Z,69.33
2018-12-07T12:51:36.557Z,68.83
2018-12-07T12:53:42.454Z,68.51
2018-12-07T12:55:47.438Z,68.01
2018-12-07T12:57:53.806Z,67.91
2018-12-07T12:59:59.456Z,67.91
2018-12-07T13:02:05.690Z,67.00
2018-12-07T13:04:11.178Z,67.04
2018-12-07T13:06:16.953Z,67.19
2018-12-07T13:08:22.794Z,67.31
2018-12-07T13:10:28.752Z,66.85
2018-12-07T13:12:34.410Z,66.80
2018-12-07T13:14:40.528Z,67.11
2018-12-07T13:16:49.554Z,66.15
2018-12-07T13:18:55.489Z,66.84
2018-12-07T13:21:04.326Z,67.69
2018-12-07T13:23:10.799Z,67.38
2018-12-07T13:25:20.642Z,67.54
2018-12-07T13:27:33.180Z,67.62
2018-12-07T13:29:41.547Z,67.66
2018-12-07T13:31:46.501Z,68.08
2018-12-07T13:33:51.464Z,67.87
2018-12-07T13:35:56.867Z,67.78
2018-12-07T13:38:02.798Z,67.88
2018-12-07T13:40:11.054Z,68.00
2018-12-07T13:42:18.002Z,67.81
2018-12-07T13:44:23.913Z,67.67
2018-12-07T13:46:30.696Z,67.81
2018-12-07T13:48:36.120Z,67.77
2018-12-07T13:50:42.031Z,67.72
2018-12-07T13:52:47.270Z,67.86
2018-12-07T13:54:54.380Z,67.92
2018-12-07T13:57:01.253Z,67.79
2018-12-07T13:59:09.117Z,68.06
2018-12-07T14:01:16.260Z,68.08
2018-12-07T14:03:25.928Z,66.95
2018-12-07T14:05:32.808Z,67.46
2018-12-07T14:07:44.255Z,66.87
2018-12-07T14:09:50.670Z,67.36
2018-12-07T14:11:57.146Z,67.04
2018-12-07T14:14:03.758Z,66.25
2018-12-07T14:16:13.203Z,66.95
2018-12-07T14:18:19.089Z,66.83
2018-12-07T14:20:24.716Z,67.16
2018-12-07T14:24:48.320Z,67.97
2018-12-07T14:26:59.509Z,69.61
2018-12-07T14:29:03.721Z,69.99
2018-12-07T14:31:08.930Z,71.30
2018-12-07T14:33:16.401Z,71.42
2018-12-07T14:35:23.607Z,71.19
2018-12-07T14:37:35.351Z,71.62
2018-12-07T14:39:43.038Z,70.64
2018-12-07T14:41:49.884Z,70.91
2018-12-07T14:43:55.371Z,70.73
2018-12-07T14:46:00.819Z,70.64
2018-12-07T14:48:07.269Z,70.72
2018-12-07T14:50:13.465Z,71.17
2018-12-07T14:52:20.651Z,71.16
2018-12-07T14:54:26.960Z,71.06
2018-12-07T14:56:34.650Z,70.53
2018-12-07T14:58:40.457Z,70.69
2018-12-07T15:00:46.734Z,70.82
2018-12-07T15:02:52.231Z,69.85
2018-12-07T15:04:58.614Z,69.69
2018-12-07T15:07:04.355Z,69.45
2018-12-07T15:09:11.194Z,68.87
2018-12-07T15:11:17.066Z,68.67
2018-12-07T15:13:24.634Z,69.16
2018-12-07T15:15:29.938Z,69.96
2018-12-07T15:17:35.681Z,70.90
2018-12-07T15:19:42.779Z,71.08
2018-12-07T15:21:47.988Z,71.04
2018-12-07T15:23:54.594Z,71.59
2018-12-07T15:26:00.656Z,72.21
2018-12-07T15:28:06.009Z,73.28
2018-12-07T15:30:14.001Z,73.46
2018-12-07T15:32:20.545Z,73.87
2018-12-07T15:34:26.669Z,74.21
2018-12-07T15:36:31.904Z,74.51
2018-12-07T15:38:38.701Z,74.57
2018-12-07T15:40:44.265Z,74.51
2018-12-07T15:42:50.929Z,75.19
2018-12-07T15:44:58.935Z,75.86
2018-12-07T15:47:09.624Z,76.36
2018-12-07T15:51:35.901Z,76.82
2018-12-07T15:53:43.254Z,77.40
2018-12-07T15:55:51.479Z,77.80
2018-12-07T15:58:00.778Z,77.97
2018-12-07T16:00:09.219Z,78.39
2018-12-07T16:02:18.440Z,78.43
2018-12-07T16:04:24.406Z,78.94
2018-12-07T16:09:05.437Z,78.43
2018-12-07T16:11:11.378Z,79.13
2018-12-07T16:13:17.358Z,79.71
2018-12-07T16:15:22.822Z,79.89
2018-12-07T16:17:31.961Z,79.48
2018-12-07T16:19:41.261Z,79.59
2018-12-07T16:21:51.366Z,80.19
2018-12-07T16:23:58.179Z,80.38
2018-12-07T16:26:03.657Z,80.36
2018-12-07T16:28:08.672Z,80.57
2018-12-07T16:30:14.230Z,81.11
2018-12-07T16:32:21.050Z,80.45
2018-12-07T16:34:26.397Z,80.50
2018-12-07T16:36:32.447Z,80.98
2018-12-07T16:38:39.524Z,81.01
2018-12-07T16:40:46.999Z,80.94
2018-12-07T16:42:53.592Z,81.27
2018-12-07T16:45:03.405Z,81.44
2018-12-07T16:47:08.497Z,80.78
2018-12-07T16:49:15.075Z,80.41
2018-12-07T16:51:21.721Z,81.06
2018-12-07T16:53:27.668Z,81.35
2018-12-07T16:55:35.539Z,81.78
2018-12-07T16:57:41.903Z,81.67
2018-12-07T16:59:47.797Z,81.93
2018-12-07T17:01:53.246Z,82.26
2018-12-07T17:03:58.878Z,81.84
2018-12-07T17:06:08.363Z,82.29
2018-12-07T17:08:13.599Z,82.29
2018-12-07T17:10:19.598Z,82.42
2018-12-07T17:12:24.885Z,82.40
2018-12-07T17:14:30.433Z,82.84
2018-12-07T17:16:36.561Z,82.69
2018-12-07T17:18:43.333Z,82.84
2018-12-07T17:20:48.304Z,82.60
2018-12-07T17:22:53.592Z,82.25
2018-12-07T17:24:58.967Z,82.52
2018-12-07T17:27:04.981Z,82.55
2018-12-07T17:29:11.301Z,82.32
2018-12-07T17:31:17.562Z,81.10
2018-12-07T17:33:23.750Z,79.77
2018-12-07T17:35:28.918Z,79.88
2018-12-07T17:37:34.148Z,80.46
2018-12-07T17:39:40.434Z,80.48
2018-12-07T17:41:47.687Z,80.17
2018-12-07T17:43:52.933Z,78.64
2018-12-07T17:45:59.740Z,78.70
2018-12-07T17:48:05.318Z,79.74
2018-12-07T17:50:11.561Z,78.73
2018-12-07T17:52:17.082Z,79.18
2018-12-07T17:54:24.537Z,80.04
2018-12-07T17:56:30.439Z,79.90
2018-12-07T17:58:57.816Z,79.92
2018-12-07T18:01:05.846Z,80.25
2018-12-07T18:03:12.624Z,79.73
2018-12-07T18:05:23.561Z,79.61
2018-12-07T18:07:29.798Z,80.13
2018-12-07T18:09:57.483Z,79.44
2018-12-07T18:14:24.762Z,79.80
2018-12-07T18:16:31.816Z,79.99
2018-12-07T18:18:37.061Z,80.84
2018-12-07T18:20:44.355Z,80.15
2018-12-07T18:22:50.513Z,81.05
2018-12-07T18:24:56.140Z,81.81
2018-12-07T18:27:02.299Z,82.34
2018-12-07T18:29:09.604Z,82.17
2018-12-07T18:31:14.852Z,81.97
2018-12-07T18:33:21.343Z,81.34
2018-12-07T18:35:28.874Z,81.79
2018-12-07T18:37:35.035Z,81.97
2018-12-07T18:39:40.222Z,81.54
2018-12-07T18:41:47.750Z,81.71
2018-12-07T18:43:55.095Z,81.49
2018-12-07T18:46:04.690Z,81.92
2018-12-07T18:48:14.791Z,81.68
2018-12-07T18:50:20.557Z,82.54
2018-12-07T18:52:30.486Z,82.98
2018-12-07T18:54:39.217Z,82.48
2018-12-07T18:56:46.971Z,81.96
2018-12-07T18:58:52.996Z,82.20
2018-12-07T19:00:58.105Z,82.20
2018-12-07T19:03:03.253Z,81.49
2018-12-07T19:05:09.007Z,81.44
2018-12-07T19:07:14.960Z,81.13
2018-12-07T19:09:21.441Z,81.17
2018-12-07T19:11:27.580Z,81.43
2018-12-07T19:13:35.275Z,82.09
2018-12-07T19:15:41.653Z,82.11
2018-12-07T19:17:46.625Z,82.75
2018-12-07T19:19:51.836Z,82.64
2018-12-07T19:21:57.998Z,82.01
2018-12-07T19:24:06.758Z,81.86
2018-12-07T19:26:14.041Z,81.78
2018-12-07T19:28:19.616Z,80.85
2018-12-07T19:30:26.287Z,80.84
2018-12-07T19:32:32.746Z,80.84
2018-12-07T19:34:43.541Z,80.14
2018-12-07T19:36:48.905Z,79.25
2018-12-07T19:38:57.344Z,78.67
2018-12-07T19:41:04.563Z,79.55
2018-12-07T19:43:14.535Z,79.26
2018-12-07T19:45:22.812Z,79.73
2018-12-07T19:47:31.192Z,78.91
2018-12-07T19:49:38.251Z,78.62
2018-12-07T19:51:49.991Z,78.43
2018-12-07T19:53:57.202Z,78.42
2018-12-07T19:56:05.380Z,78.73
2018-12-07T19:58:11.428Z,79.13
2018-12-07T20:00:19.287Z,79.22
2018-12-07T20:02:26.629Z,78.39
2018-12-07T20:04:32.683Z,77.43
2018-12-07T20:06:40.196Z,78.07
2018-12-07T20:08:45.980Z,78.16
2018-12-07T20:10:54.003Z,77.89
2018-12-07T20:12:59.543Z,77.49
2018-12-07T20:15:07.410Z,76.97
2018-12-07T20:17:13.441Z,77.85
2018-12-07T20:19:18.983Z,77.71
2018-12-07T20:21:24.673Z,76.94
2018-12-07T20:23:30.010Z,75.91
2018-12-07T20:25:36.591Z,75.94
2018-12-07T20:27:42.314Z,76.86
2018-12-07T20:29:47.901Z,76.38
2018-12-07T20:31:53.320Z,77.25
2018-12-07T20:33:59.181Z,76.94
2018-12-07T20:36:05.795Z,75.83
2018-12-07T20:38:11.438Z,77.23
2018-12-07T20:40:19.148Z,78.38
2018-12-07T20:42:25.588Z,77.98
2018-12-07T20:44:32.339Z,77.06
2018-12-07T20:46:38.048Z,77.31
2018-12-07T20:48:45.675Z,77.76
2018-12-07T20:50:51.882Z,77.57
2018-12-07T20:52:57.198Z,77.93
2018-12-07T20:55:03.585Z,78.84
2018-12-07T20:57:11.055Z,79.34
2018-12-07T20:59:17.583Z,79.44
2018-12-07T21:01:25.191Z,79.51
2018-12-07T21:04:37.470Z,79.93
2018-12-07T21:08:09.602Z,79.85
2018-12-07T21:11:13.336Z,79.61
2018-12-07T21:17:15.294Z,79.47
2018-12-07T21:19:26.672Z,79.54
2018-12-07T21:21:32.918Z,79.25
2018-12-07T21:23:40.394Z,79.12
2018-12-07T21:25:46.007Z,78.58
2018-12-07T21:27:51.219Z,78.32
2018-12-07T21:32:42.189Z,76.60
2018-12-07T21:34:59.564Z,77.70
2018-12-07T21:37:04.726Z,75.76
2018-12-07T21:39:24.778Z,75.37
2018-12-07T21:41:30.794Z,74.76
2018-12-07T21:43:37.304Z,74.42
2018-12-07T21:45:43.144Z,75.12
2018-12-07T21:48:24.317Z,75.62
2018-12-07T21:50:30.031Z,74.79
2018-12-07T21:52:35.423Z,73.33
2018-12-07T21:54:41.865Z,73.37
2018-12-07T21:56:46.950Z,74.53
2018-12-07T21:58:51.844Z,74.55
2018-12-07T22:00:56.993Z,75.18
2018-12-07T22:03:02.637Z,74.43
2018-12-07T22:05:09.375Z,73.25
2018-12-07T22:07:14.459Z,73.59
2018-12-07T22:09:20.265Z,73.10
2018-12-07T22:11:25.897Z,73.95
2018-12-07T22:13:31.013Z,74.35
2018-12-07T22:15:37.359Z,74.37
2018-12-07T22:17:42.917Z,74.01
2018-12-07T22:19:47.723Z,75.02
2018-12-07T22:21:52.864Z,73.30
2018-12-07T22:23:57.810Z,73.59
2018-12-07T22:26:03.141Z,74.11
2018-12-07T22:28:09.100Z,73.71
2018-12-07T22:30:14.680Z,73.23
2018-12-07T22:32:19.923Z,73.50
2018-12-07T22:34:25.418Z,73.82
2018-12-07T22:36:30.302Z,73.30
2018-12-07T22:38:36.383Z,74.11
2018-12-07T22:40:41.599Z,73.52
2018-12-07T22:42:46.593Z,73.96
2018-12-07T22:44:51.910Z,73.76
2018-12-07T22:46:57.035Z,73.33
2018-12-07T22:49:02.229Z,72.20
2018-12-07T22:51:08.453Z,73.93
2018-12-07T22:53:13.111Z,74.32
2018-12-07T22:55:18.065Z,73.86
2018-12-07T22:57:22.942Z,74.40
2018-12-07T22:59:28.647Z,74.36
2018-12-07T23:01:34.112Z,75.13
2018-12-07T23:03:38.898Z,75.13
2018-12-07T23:05:43.694Z,75.44
2018-12-07T23:07:48.448Z,75.64
2018-12-07T23:09:54.075Z,75.23
2018-12-07T23:11:59.134Z,75.65
2018-12-07T23:14:04.124Z,74.56
2018-12-07T23:16:08.914Z,75.12
2018-12-07T23:18:13.725Z,75.03
2018-12-07T23:20:18.893Z,75.04
2018-12-07T23:22:24.515Z,74.77
2018-12-07T23:24:29.270Z,74.48
2018-12-07T23:26:34.314Z,73.69
2018-12-07T23:28:39.686Z,73.21
2018-12-07T23:30:45.211Z,74.10
2018-12-07T23:32:50.048Z,73.41
2018-12-07T23:34:54.839Z,72.94
2018-12-07T23:36:59.706Z,72.76
2018-12-07T23:39:05.663Z,72.50
2018-12-07T23:41:10.437Z,73.01
2018-12-07T23:43:15.163Z,72.71
2018-12-07T23:45:19.818Z,73.23
2018-12-07T23:47:25.188Z,73.74
2018-12-07T23:49:30.865Z,73.60
2018-12-07T23:51:35.744Z,72.82
2018-12-07T23:53:41.170Z,72.56
2018-12-07T23:55:47.277Z,72.94
2018-12-07T23:57:52.094Z,72.33
2018-12-07T23:59:57.241Z,72.24
